Time;durP1;ratioP1;P1;durP2;ratioP2;P2;SDS_P1;SDS_P2;PMS_P1;PMS_P2;Temp;Humidity;BMP_temperature;BMP_pressure;BME280_temperature;BME280_humidity;BME280_pressure;Samples;Min_cycle;Max_cycle;Signal;HPM_P1;HPM_P2
2022/06/17 00:00:51;;;;;;;4.32;3.20;;;21.20;99.90;;;;;;5076764;28;20044;-66
2022/06/17 00:03:18;;;;;;;4.47;2.90;;;21.20;99.90;;;;;;5076555;28;20032;-66
2022/06/17 00:05:44;;;;;;;5.65;3.20;;;21.10;99.90;;;;;;5076490;28;20028;-66
2022/06/17 00:08:20;;;;;;;5.13;3.30;;;21.10;99.90;;;;;;5076490;28;20064;-66
2022/06/17 00:10:46;;;;;;;4.55;2.83;;;21.10;99.90;;;;;;5076727;28;20035;-66
2022/06/17 00:13:15;;;;;;;4.40;2.88;;;21.00;99.90;;;;;;5079710;28;20384;-66
2022/06/17 00:15:41;;;;;;;6.43;2.88;;;21.00;99.90;;;;;;5079544;28;20036;-67
2022/06/17 00:18:07;;;;;;;5.28;2.97;;;20.90;99.90;;;;;;5079414;28;20115;-66
2022/06/17 00:20:34;;;;;;;5.22;2.95;;;20.90;99.90;;;;;;5080090;28;20038;-66
2022/06/17 00:23:00;;;;;;;4.97;3.13;;;20.90;99.90;;;;;;5080077;28;20066;-66
2022/06/17 00:25:34;;;;;;;5.93;3.17;;;20.80;99.90;;;;;;5079970;28;20028;-66
2022/06/17 00:28:00;;;;;;;6.00;3.08;;;20.80;99.90;;;;;;5079971;28;20151;-66
2022/06/17 00:30:29;;;;;;;6.47;3.17;;;20.70;99.90;;;;;;5080392;28;20075;-66
2022/06/17 00:33:01;;;;;;;5.93;3.40;;;20.70;99.90;;;;;;5079877;28;20035;-66
2022/06/17 00:35:31;;;;;;;5.10;3.10;;;20.70;99.90;;;;;;5079901;28;20118;-66
2022/06/17 00:37:58;;;;;;;7.45;3.55;;;20.60;99.90;;;;;;5080065;28;20032;-66
2022/06/17 00:40:26;;;;;;;3.60;3.00;;;20.50;99.90;;;;;;5080155;28;20032;-66
2022/06/17 00:42:53;;;;;;;7.65;3.25;;;20.50;99.90;;;;;;5079726;28;20060;-66
2022/06/17 00:45:31;;;;;;;4.40;3.13;;;20.40;99.90;;;;;;5079968;28;20277;-66
2022/06/17 00:48:11;;;;;;;7.88;3.20;;;20.30;99.90;;;;;;5078872;28;20063;-66
2022/06/17 00:51:03;;;;;;;4.35;3.15;;;20.30;99.90;;;;;;5078870;28;20036;-66
2022/06/17 00:53:43;;;;;;;6.17;3.30;;;20.20;99.90;;;;;;5074899;28;20048;-67
2022/06/17 00:56:39;;;;;;;6.55;3.33;;;20.00;99.90;;;;;;5079692;28;20029;-66
2022/06/17 00:59:10;;;;;;;7.45;3.90;;;20.00;99.90;;;;;;5079215;28;20056;-66
2022/06/17 01:01:48;;;;;;;5.72;3.58;;;20.00;99.90;;;;;;5079652;28;20032;-66
2022/06/17 01:04:34;;;;;;;6.38;3.50;;;20.00;99.90;;;;;;5078518;28;20147;-66
2022/06/17 01:07:15;;;;;;;5.28;3.60;;;19.90;99.90;;;;;;5078630;28;20032;-66
2022/06/17 01:10:01;;;;;;;5.18;3.40;;;19.80;99.90;;;;;;5079852;28;20035;-66
2022/06/17 01:12:42;;;;;;;4.28;3.30;;;19.80;99.90;;;;;;5078536;28;20032;-66
2022/06/17 01:15:11;;;;;;;4.25;3.72;;;19.80;99.90;;;;;;5062086;28;20024;-66
2022/06/17 01:17:39;;;;;;;5.47;3.42;;;19.70;99.90;;;;;;5078285;28;20035;-66
2022/06/17 01:20:09;;;;;;;6.47;3.50;;;19.60;99.90;;;;;;5078218;28;20024;-66
2022/06/17 01:22:53;;;;;;;6.15;3.38;;;19.60;99.90;;;;;;5077991;28;20300;-66
2022/06/17 01:25:32;;;;;;;7.40;3.50;;;19.60;99.90;;;;;;5078665;28;20094;-66
2022/06/17 01:28:04;;;;;;;6.30;3.67;;;19.60;99.90;;;;;;5078181;28;20036;-66
2022/06/17 01:30:47;;;;;;;5.35;3.40;;;19.60;99.90;;;;;;5078313;28;20415;-65
2022/06/17 01:33:19;;;;;;;3.92;3.25;;;19.60;99.90;;;;;;5078808;28;20146;-66
2022/06/17 01:35:44;;;;;;;5.22;3.60;;;19.50;99.90;;;;;;5078676;28;20044;-66
2022/06/17 01:38:11;;;;;;;5.90;3.63;;;19.60;99.90;;;;;;5078600;28;20029;-65
2022/06/17 01:40:37;;;;;;;6.97;3.78;;;19.60;99.90;;;;;;5061039;28;20043;-65
2022/06/17 01:43:08;;;;;;;5.45;3.97;;;19.50;99.90;;;;;;5077830;28;20395;-65
2022/06/17 01:45:39;;;;;;;4.50;3.80;;;19.60;99.90;;;;;;5077757;28;20029;-67
2022/06/17 01:48:07;;;;;;;5.43;4.10;;;19.50;99.90;;;;;;5078378;28;20020;-67
2022/06/17 01:50:34;;;;;;;4.55;3.65;;;19.50;99.90;;;;;;5078383;28;20447;-66
2022/06/17 01:53:05;;;;;;;5.20;3.90;;;19.40;99.90;;;;;;5077456;28;20056;-66
2022/06/17 01:55:51;;;;;;;4.20;3.80;;;19.30;99.90;;;;;;5078182;28;20037;-66
2022/06/17 01:58:25;;;;;;;5.50;4.05;;;19.30;99.90;;;;;;5077580;28;20285;-67
2022/06/17 02:00:55;;;;;;;8.05;3.92;;;19.40;99.90;;;;;;5077384;28;20060;-66
2022/06/17 02:03:26;;;;;;;7.07;4.10;;;19.40;99.90;;;;;;5078143;28;20048;-66
2022/06/17 02:06:14;;;;;;;7.10;4.47;;;19.30;99.90;;;;;;5077372;28;20104;-67
2022/06/17 02:08:41;;;;;;;5.50;4.13;;;19.30;99.90;;;;;;5078112;28;20308;-66
2022/06/17 02:11:13;;;;;;;4.85;4.45;;;19.20;99.90;;;;;;5077119;28;20170;-66
2022/06/17 02:13:45;;;;;;;8.15;3.60;;;19.20;99.90;;;;;;5077515;28;20119;-66
2022/06/17 02:16:16;;;;;;;4.68;4.03;;;19.30;99.90;;;;;;5077169;28;20140;-66
2022/06/17 02:18:55;;;;;;;5.93;3.83;;;19.20;99.90;;;;;;5077165;28;20300;-67
2022/06/17 02:21:29;;;;;;;5.55;4.00;;;19.20;99.90;;;;;;5076884;28;20043;-66
2022/06/17 02:23:56;;;;;;;5.78;4.22;;;19.20;99.90;;;;;;5077843;28;20036;-66
2022/06/17 02:26:23;;;;;;;7.10;4.60;;;19.30;99.90;;;;;;5076955;28;20028;-66
2022/06/17 02:28:50;;;;;;;6.43;4.13;;;19.30;99.90;;;;;;5076960;28;20043;-68
2022/06/17 02:31:19;;;;;;;6.85;3.70;;;19.30;99.90;;;;;;5076923;28;20032;-66
2022/06/17 02:33:49;;;;;;;5.72;4.18;;;19.20;99.90;;;;;;5076867;28;20032;-66
2022/06/17 02:36:37;;;;;;;5.00;3.65;;;19.20;99.90;;;;;;5076928;28;20101;-66
2022/06/17 02:39:05;;;;;;;4.43;3.78;;;19.20;99.90;;;;;;5076768;28;20032;-66
2022/06/17 02:41:31;;;;;;;6.13;3.60;;;19.30;99.90;;;;;;5077319;28;20082;-66
2022/06/17 02:44:05;;;;;;;5.78;3.83;;;19.30;99.90;;;;;;5077466;28;20338;-66
2022/06/17 02:46:38;;;;;;;4.25;3.80;;;19.40;99.90;;;;;;5076644;28;20056;-66
2022/06/17 02:49:18;;;;;;;7.53;4.20;;;19.30;99.90;;;;;;5076625;28;20025;-66
2022/06/17 02:51:44;;;;;;;7.28;4.10;;;19.40;99.90;;;;;;5076264;28;20056;-66
2022/06/17 02:54:16;;;;;;;4.70;4.30;;;19.40;99.90;;;;;;5076619;28;20066;-66
2022/06/17 02:56:50;;;;;;;4.22;3.70;;;19.40;99.90;;;;;;5077577;28;20399;-67
2022/06/17 02:59:34;;;;;;;6.35;3.90;;;19.30;99.90;;;;;;5059812;28;20426;-67
2022/06/17 03:02:22;;;;;;;5.95;3.88;;;19.40;99.90;;;;;;5077177;28;20056;-66
2022/06/17 03:04:53;;;;;;;4.32;3.83;;;19.40;99.90;;;;;;5076473;28;20036;-66
2022/06/17 03:07:22;;;;;;;5.88;3.80;;;19.40;99.90;;;;;;5076283;28;20024;-67
2022/06/17 03:09:54;;;;;;;5.75;3.90;;;19.40;99.90;;;;;;5076369;28;20035;-66
2022/06/17 03:12:25;;;;;;;5.65;4.22;;;19.40;99.90;;;;;;5076220;28;20048;-67
2022/06/17 03:15:04;;;;;;;8.27;4.95;;;19.40;99.90;;;;;;5076373;28;20035;-66
2022/06/17 03:17:38;;;;;;;8.05;4.38;;;19.50;99.90;;;;;;5076147;28;20350;-66
2022/06/17 03:20:07;;;;;;;5.22;4.05;;;19.50;99.90;;;;;;5076024;28;20024;-66
2022/06/17 03:22:35;;;;;;;9.07;4.38;;;19.50;99.90;;;;;;5076856;28;20033;-66
2022/06/17 03:25:07;;;;;;;9.02;4.15;;;19.50;99.90;;;;;;5076956;28;20033;-66
2022/06/17 03:27:38;;;;;;;5.60;3.80;;;19.60;99.90;;;;;;5076160;28;20024;-66
2022/06/17 03:30:08;;;;;;;6.85;3.97;;;19.50;99.90;;;;;;5076366;28;20090;-66
2022/06/17 03:32:38;;;;;;;7.68;4.20;;;19.50;99.90;;;;;;5075962;28;20021;-66
2022/06/17 03:35:04;;;;;;;6.22;4.13;;;19.50;99.90;;;;;;5075872;28;20117;-65
2022/06/17 03:37:50;;;;;;;4.03;3.60;;;19.70;99.90;;;;;;5075815;28;20282;-65
2022/06/17 03:40:25;;;;;;;9.13;3.90;;;19.70;99.90;;;;;;5076009;28;20123;-65
2022/06/17 03:43:09;;;;;;;6.45;4.30;;;19.70;99.90;;;;;;5075990;28;20040;-66
2022/06/17 03:45:46;;;;;;;6.03;4.68;;;19.70;99.90;;;;;;5075879;28;20028;-66
2022/06/17 03:48:44;;;;;;;4.20;3.80;;;19.80;99.90;;;;;;5079987;28;20043;-66
2022/06/17 03:51:15;;;;;;;4.18;3.78;;;19.80;99.90;;;;;;5079733;28;20035;-66
2022/06/17 03:53:43;;;;;;;5.72;3.70;;;19.80;99.90;;;;;;5063128;28;20055;-67
2022/06/17 03:56:21;;;;;;;5.88;3.85;;;19.80;99.90;;;;;;5080588;28;20033;-66
2022/06/17 03:58:49;;;;;;;5.28;3.90;;;19.80;99.90;;;;;;5079729;28;20020;-66
2022/06/17 04:01:34;;;;;;;5.15;3.65;;;19.70;99.90;;;;;;5079572;28;20364;-66
2022/06/17 04:04:27;;;;;;;6.50;4.40;;;19.70;99.90;;;;;;5079718;28;20036;-66
2022/06/17 04:06:56;;;;;;;5.68;4.40;;;19.80;99.90;;;;;;5079653;28;20052;-65
2022/06/17 04:09:37;;;;;;;5.97;4.40;;;19.60;99.90;;;;;;5080450;28;20416;-66
2022/06/17 04:12:19;;;;;;;8.68;4.40;;;19.70;99.90;;;;;;5079552;28;20052;-65
2022/06/17 04:15:34;;;;;;;6.38;4.20;;;19.70;99.90;;;;;;5079885;28;20291;-65
2022/06/17 04:18:01;;;;;;;8.25;4.50;;;19.60;99.90;;;;;;5078355;28;20052;-66
2022/06/17 04:20:39;;;;;;;5.15;4.65;;;19.70;99.90;;;;;;5079665;28;20036;-66
2022/06/17 04:23:12;;;;;;;5.57;4.70;;;19.90;99.90;;;;;;5080151;28;20052;-66
2022/06/17 04:25:56;;;;;;;6.47;4.38;;;19.80;99.90;;;;;;5080956;28;20043;-66
2022/06/17 04:28:27;;;;;;;11.10;4.68;;;19.80;99.90;;;;;;5079518;28;20331;-66
2022/06/17 04:31:06;;;;;;;7.53;4.03;;;19.70;99.90;;;;;;5079162;28;20311;-66
2022/06/17 04:33:53;;;;;;;9.75;4.45;;;19.90;99.90;;;;;;5079163;28;20029;-66
2022/06/17 04:36:25;;;;;;;6.60;4.30;;;19.80;99.90;;;;;;5079845;28;20032;-66
2022/06/17 04:39:25;;;;;;;6.78;4.20;;;19.90;99.90;;;;;;5079428;28;20031;-66
2022/06/17 04:42:38;;;;;;;5.55;4.75;;;19.70;99.90;;;;;;5090152;28;20090;-66
2022/06/17 04:45:06;;;;;;;;;;;19.70;99.90;;;;;;5080177;28;20037;-66
2022/06/17 04:47:36;;;;;;;7.07;4.80;;;19.70;99.90;;;;;;5063156;28;19923;-66
2022/06/17 04:50:16;;;;;;;5.07;4.38;;;19.70;99.90;;;;;;5078839;28;20094;-66
2022/06/17 04:52:45;;;;;;;7.63;4.28;;;19.80;99.90;;;;;;5078551;28;20412;-66
2022/06/17 04:55:42;;;;;;;6.40;4.35;;;19.90;99.90;;;;;;5086576;28;20040;-66
2022/06/17 04:58:21;;;;;;;6.05;4.07;;;20.00;99.90;;;;;;5078638;28;20032;-66
2022/06/17 05:00:56;;;;;;;5.25;4.05;;;20.10;99.90;;;;;;5079333;28;20056;-66
2022/06/17 05:03:59;;;;;;;8.20;4.32;;;20.10;99.90;;;;;;5078633;28;20443;-67
2022/06/17 05:06:33;;;;;;;7.78;4.63;;;20.10;99.90;;;;;;5078493;28;20020;-66
2022/06/17 05:09:21;;;;;;;4.53;4.03;;;20.20;99.90;;;;;;5079786;28;20035;-65
2022/06/17 05:11:51;;;;;;;5.60;3.90;;;20.00;99.90;;;;;;5079564;28;20039;-65
2022/06/17 05:14:30;;;;;;;5.82;4.60;;;20.00;99.90;;;;;;5078477;28;20032;-66
2022/06/17 05:16:57;;;;;;;7.22;4.38;;;20.10;99.90;;;;;;5079488;28;20032;-66
2022/06/17 05:19:23;;;;;;;8.75;4.93;;;20.10;99.90;;;;;;5078341;28;20028;-65
2022/06/17 05:21:50;;;;;;;4.47;3.88;;;20.40;99.90;;;;;;5061674;28;20152;-65
2022/06/17 05:24:21;;;;;;;6.07;4.55;;;20.40;99.90;;;;;;5078240;28;20059;-65
2022/06/17 05:26:47;;;;;;;6.78;4.03;;;20.10;99.90;;;;;;5077959;28;20028;-66
2022/06/17 05:29:13;;;;;;;6.13;4.07;;;20.00;99.90;;;;;;5078026;28;20021;-66
2022/06/17 05:31:49;;;;;;;4.43;3.80;;;20.10;99.90;;;;;;5062636;28;20040;-66
2022/06/17 05:34:16;;;;;;;4.10;3.70;;;20.20;99.90;;;;;;5077966;28;20036;-66
2022/06/17 05:36:42;;;;;;;4.20;3.80;;;20.40;99.90;;;;;;5079092;28;20344;-66
2022/06/17 05:39:08;;;;;;;7.32;4.68;;;20.60;99.90;;;;;;5077916;28;20067;-66
2022/06/17 05:41:34;;;;;;;7.60;4.25;;;20.70;99.90;;;;;;5078488;28;20388;-67
2022/06/17 05:44:00;;;;;;;6.63;4.40;;;20.80;99.90;;;;;;5078543;28;20032;-66
2022/06/17 05:46:37;;;;;;;7.65;4.30;;;21.00;99.90;;;;;;5077698;28;20383;-66
2022/06/17 05:49:09;;;;;;;5.05;3.83;;;21.00;99.90;;;;;;5077964;28;20183;-65
2022/06/17 05:52:04;;;;;;;7.72;3.55;;;21.00;99.90;;;;;;5077830;28;20045;-66
2022/06/17 05:54:45;;;;;;;3.53;3.20;;;21.00;99.90;;;;;;5077611;28;20400;-65
2022/06/17 05:57:16;;;;;;;5.40;4.22;;;21.10;99.90;;;;;;5077476;28;20057;-66
2022/06/17 05:59:43;;;;;;;5.65;4.38;;;21.00;99.90;;;;;;5077505;28;20040;-66
2022/06/17 06:02:12;;;;;;;5.22;4.10;;;21.10;99.90;;;;;;5077258;28;20036;-66
2022/06/17 06:05:08;;;;;;;4.47;3.60;;;21.40;99.90;;;;;;5082067;28;20068;-66
2022/06/17 06:07:38;;;;;;;7.40;4.32;;;21.50;99.90;;;;;;5077519;28;20044;-66
2022/06/17 06:10:05;;;;;;;11.98;4.45;;;21.10;99.90;;;;;;5076716;28;20033;-66
2022/06/17 06:15:17;;;;;;;5.65;4.10;;;20.60;99.90;;;;;;5063468;28;20419;-65
2022/06/17 06:18:03;;;;;;;10.63;3.67;;;20.60;99.90;;;;;;5077750;28;20029;-66
2022/06/17 06:20:29;;;;;;;6.80;3.20;;;20.70;99.90;;;;;;5077427;28;20025;-66
2022/06/17 06:22:55;;;;;;;3.90;3.05;;;20.90;99.90;;;;;;5077973;28;20040;-66
2022/06/17 06:25:21;;;;;;;9.52;3.95;;;20.90;99.90;;;;;;5077642;28;20028;-66
2022/06/17 06:27:48;;;;;;;6.75;3.55;;;20.90;99.90;;;;;;5076960;28;20079;-65
2022/06/17 06:30:25;;;;;;;5.03;3.55;;;20.90;99.90;;;;;;5077014;28;20082;-66
2022/06/17 06:32:54;;;;;;;3.80;3.33;;;20.90;99.90;;;;;;5076859;28;20039;-66
2022/06/17 06:35:22;;;;;;;6.22;3.50;;;20.90;99.90;;;;;;5077671;28;20090;-66
2022/06/17 06:37:49;;;;;;;4.20;3.13;;;20.80;99.90;;;;;;5077507;28;20059;-67
2022/06/17 06:40:15;;;;;;;10.82;3.47;;;20.80;99.90;;;;;;5076711;28;20096;-65
2022/06/17 06:42:42;;;;;;;6.40;3.28;;;20.80;99.90;;;;;;5076642;28;20047;-66
2022/06/17 06:45:46;;;;;;;8.90;3.00;;;20.80;99.90;;;;;;5076616;28;20070;-65
2022/06/17 06:48:14;;;;;;;5.60;2.90;;;20.70;99.90;;;;;;5077068;28;20037;-66
2022/06/17 06:50:40;;;;;;;6.57;3.22;;;20.80;99.90;;;;;;5077273;28;20166;-65
2022/06/17 06:53:07;;;;;;;5.63;3.20;;;21.00;99.90;;;;;;5059901;28;20458;-65
2022/06/17 06:55:35;;;;;;;9.80;3.17;;;21.00;99.90;;;;;;5076549;28;20299;-67
2022/06/17 06:58:11;;;;;;;4.85;2.90;;;20.90;99.90;;;;;;5076571;28;20041;-66
2022/06/17 07:00:46;;;;;;;7.78;2.47;;;20.90;99.90;;;;;;5060808;28;20082;-66
2022/06/17 07:03:13;;;;;;;5.60;2.45;;;21.10;99.90;;;;;;5077504;28;20339;-64
2022/06/17 07:05:43;;;;;;;6.95;2.60;;;21.00;99.90;;;;;;5077071;28;20054;-65
2022/06/17 07:08:11;;;;;;;4.40;2.45;;;21.10;99.90;;;;;;5077028;28;20082;-65
2022/06/17 07:10:38;;;;;;;7.32;2.65;;;21.30;99.90;;;;;;5076315;28;20032;-66
2022/06/17 07:13:08;;;;;;;5.53;2.88;;;21.50;99.90;;;;;;5077240;28;20070;-66
2022/06/17 07:15:40;;;;;;;8.10;2.55;;;21.40;99.90;;;;;;5076990;28;20032;-65
2022/06/17 07:18:20;;;;;;;8.38;2.97;;;21.40;99.90;;;;;;5077357;28;20032;-65
2022/06/17 07:20:48;;;;;;;7.10;2.40;;;21.40;99.90;;;;;;5076466;28;20297;-66
2022/06/17 07:23:18;;;;;;;5.93;2.80;;;21.40;99.90;;;;;;5075923;28;20028;-65
2022/06/17 07:25:45;;;;;;;6.88;2.85;;;21.60;99.90;;;;;;5077614;28;20134;-65
2022/06/17 07:28:18;;;;;;;3.67;2.22;;;21.80;99.90;;;;;;5076447;28;20037;-65
2022/06/17 07:30:46;;;;;;;6.40;2.50;;;22.00;99.90;;;;;;5076917;28;20071;-66
2022/06/17 07:33:13;;;;;;;6.40;2.50;;;22.10;99.90;;;;;;5076159;28;20020;-65
2022/06/17 07:35:41;;;;;;;5.47;2.63;;;22.20;99.90;;;;;;5076424;28;20056;-66
2022/06/17 07:40:58;;;;;;;5.25;2.10;;;22.60;99.90;;;;;;5076850;28;20043;-66
2022/06/17 07:43:24;;;;;;;5.90;2.50;;;22.60;99.90;;;;;;5076845;28;20292;-65
2022/06/17 07:45:50;;;;;;;6.32;2.60;;;22.60;99.90;;;;;;5077170;28;20033;-67
2022/06/17 07:48:18;;;;;;;5.78;2.33;;;22.60;99.90;;;;;;5075940;28;20471;-66
2022/06/17 07:50:44;;;;;;;5.13;2.28;;;22.70;99.90;;;;;;5076780;28;20089;-65
2022/06/17 07:53:14;;;;;;;6.68;2.53;;;22.80;99.90;;;;;;5076409;28;20049;-65
2022/06/17 07:55:41;;;;;;;8.10;2.35;;;23.00;99.90;;;;;;5075958;28;20051;-66
2022/06/17 07:58:10;;;;;;;7.85;2.20;;;23.10;99.90;;;;;;5076775;28;20033;-65
2022/06/17 08:00:41;;;;;;;6.00;2.30;;;23.10;99.90;;;;;;5076717;28;20376;-66
2022/06/17 08:03:07;;;;;;;3.75;2.10;;;23.20;99.90;;;;;;5076580;28;20082;-65
2022/06/17 08:05:34;;;;;;;7.15;2.22;;;23.20;99.90;;;;;;5075819;28;20466;-65
2022/06/17 08:08:03;;;;;;;6.25;2.00;;;23.30;99.90;;;;;;5076446;28;20281;-66
2022/06/17 08:10:32;;;;;;;4.05;2.15;;;23.30;99.90;;;;;;5076505;28;20029;-66
2022/06/17 08:12:57;;;;;;;6.07;2.13;;;23.40;99.90;;;;;;5076371;28;20039;-66
2022/06/17 08:15:24;;;;;;;6.03;2.03;;;23.60;99.90;;;;;;5076517;28;20040;-66
2022/06/17 08:17:49;;;;;;;4.55;2.00;;;23.70;99.90;;;;;;5076654;28;20458;-66
2022/06/17 08:20:29;;;;;;;2.70;1.65;;;23.60;99.90;;;;;;5076367;28;20029;-65
2022/06/17 08:22:56;;;;;;;4.45;2.10;;;23.60;99.90;;;;;;5075552;28;20329;-65
2022/06/17 08:25:22;;;;;;;7.63;2.10;;;23.70;99.90;;;;;;5076266;28;20037;-66
2022/06/17 08:27:51;;;;;;;4.20;1.75;;;23.90;99.90;;;;;;5075536;28;20025;-65
2022/06/17 08:30:21;;;;;;;3.10;1.65;;;24.00;99.90;;;;;;5076340;28;20052;-67
2022/06/17 08:32:53;;;;;;;4.28;1.77;;;24.10;99.90;;;;;;5077410;28;20044;-69
2022/06/17 08:35:28;;;;;;;6.10;1.80;;;24.30;99.90;;;;;;5079292;28;20025;-66
2022/06/17 08:38:16;;;;;;;6.47;1.92;;;24.30;99.90;;;;;;5079909;28;20025;-67
2022/06/17 08:40:55;;;;;;;7.80;2.15;;;24.10;99.90;;;;;;5078910;28;20086;-66
2022/06/17 08:43:52;;;;;;;8.30;2.00;;;24.00;99.90;;;;;;5080222;28;20039;-67
2022/06/17 08:46:52;;;;;;;5.22;2.08;;;24.10;99.90;;;;;;5080834;28;20036;-66
2022/06/17 08:49:27;;;;;;;4.88;1.90;;;24.10;99.90;;;;;;5079619;28;20028;-65
2022/06/17 08:52:18;;;;;;;3.95;1.63;;;24.20;99.90;;;;;;5079440;28;20304;-66
2022/06/17 08:55:16;;;;;;;5.43;2.13;;;24.40;99.90;;;;;;5079642;28;20380;-65
2022/06/17 08:57:58;;;;;;;6.13;1.85;;;24.50;99.90;;;;;;5079682;28;20068;-65
2022/06/17 09:00:31;;;;;;;;;;;24.70;99.90;;;;;;5080963;28;20033;-66
2022/06/17 09:03:29;;;;;;;4.22;1.85;;;24.60;99.90;;;;;;5079341;28;19908;-65
2022/06/17 09:06:30;;;;;;;4.90;1.90;;;24.90;99.90;;;;;;5079963;28;20032;-65
2022/06/17 09:09:14;;;;;;;5.85;2.08;;;24.90;99.90;;;;;;5079404;28;20024;-66
2022/06/17 09:11:44;;;;;;;7.45;1.92;;;24.80;99.90;;;;;;5079692;28;20346;-67
2022/06/17 09:14:17;;;;;;;7.10;2.08;;;24.80;99.90;;;;;;5079834;28;20400;-66
2022/06/17 09:17:10;;;;;;;5.90;1.95;;;24.90;99.90;;;;;;5079568;28;20064;-66
2022/06/17 09:19:41;;;;;;;2.92;1.80;;;25.20;99.90;;;;;;5079722;28;20032;-66
2022/06/17 09:22:13;;;;;;;8.23;2.00;;;25.50;99.90;;;;;;5078999;28;20324;-65
2022/06/17 09:24:42;;;;;;;4.25;1.65;;;25.70;99.90;;;;;;5079115;28;20021;-65
2022/06/17 09:27:26;;;;;;;3.83;1.75;;;25.90;99.90;;;;;;5079256;28;20021;-66
2022/06/17 09:30:15;;;;;;;2.45;1.90;;;26.00;99.90;;;;;;5079807;28;20025;-67
2022/06/17 09:33:01;;;;;;;4.70;1.70;;;25.90;99.90;;;;;;5078858;28;20631;-66
2022/06/17 09:35:35;;;;;;;3.70;1.50;;;25.70;99.90;;;;;;5079007;28;20036;-66
2022/06/17 09:38:13;;;;;;;4.35;2.00;;;25.50;99.90;;;;;;5079059;28;20113;-67
2022/06/17 09:41:22;;;;;;;5.47;1.70;;;25.40;99.90;;;;;;5079060;28;20392;-65
2022/06/17 09:43:53;;;;;;;10.10;2.05;;;25.60;99.90;;;;;;5077694;28;20059;-68
2022/06/17 09:46:39;;;;;;;2.67;1.80;;;25.90;99.90;;;;;;5078328;28;20073;-67
2022/06/17 09:49:27;;;;;;;4.25;1.50;;;26.10;99.90;;;;;;5078953;28;20055;-69
2022/06/17 09:52:04;;;;;;;3.92;1.80;;;26.00;99.90;;;;;;5078822;28;20059;-69
2022/06/17 09:54:35;;;;;;;3.10;1.30;;;25.70;99.90;;;;;;5061245;28;20097;-66
2022/06/17 09:57:30;;;;;;;4.80;1.70;;;25.90;99.90;;;;;;5078756;28;20119;-68
2022/06/17 10:00:04;;;;;;;2.33;1.50;;;26.30;99.90;;;;;;5078637;28;20384;-66
2022/06/17 10:02:41;;;;;;;3.55;1.80;;;26.30;99.90;;;;;;5078271;28;20051;-68
2022/06/17 10:05:36;;;;;;;7.25;2.40;;;26.40;99.90;;;;;;5078229;28;20442;-69
2022/06/17 10:08:08;;;;;;;2.85;1.80;;;26.50;99.90;;;;;;5078834;28;20086;-66
2022/06/17 10:10:44;;;;;;;2.83;1.60;;;26.70;99.90;;;;;;5078400;28;20085;-68
2022/06/17 10:13:21;;;;;;;4.82;1.65;;;26.60;99.90;;;;;;5078348;28;20297;-66
2022/06/17 10:19:28;;;;;;;4.15;1.70;;;26.80;99.90;;;;;;5077992;28;20075;-68
2022/06/17 10:22:12;;;;;;;4.88;1.60;;;26.60;99.90;;;;;;5078200;28;20066;-66
2022/06/17 10:24:50;;;;;;;3.03;1.85;;;26.70;99.90;;;;;;5078336;28;20040;-66
2022/06/17 10:27:44;;;;;;;5.35;1.63;;;26.70;99.90;;;;;;5077733;28;20032;-67
2022/06/17 10:30:12;;;;;;;2.53;1.38;;;26.70;99.90;;;;;;5060973;28;20115;-66
2022/06/17 10:32:43;;;;;;;2.42;1.75;;;26.90;99.90;;;;;;5077937;28;20036;-68
2022/06/17 10:35:33;;;;;;;5.68;1.85;;;27.30;99.90;;;;;;5077846;28;20032;-66
2022/06/17 10:38:04;;;;;;;3.60;1.55;;;27.50;99.90;;;;;;5076783;28;20400;-65
2022/06/17 10:40:34;;;;;;;4.40;1.50;;;27.40;99.60;;;;;;5077475;28;20040;-67
2022/06/17 10:43:04;;;;;;;5.78;1.65;;;27.30;99.80;;;;;;5077472;28;20301;-66
2022/06/17 10:45:30;;;;;;;3.05;1.50;;;27.30;99.60;;;;;;5077797;28;20029;-67
2022/06/17 10:48:33;;;;;;;1.70;1.30;;;27.30;99.50;;;;;;5077355;28;20078;-67
2022/06/17 10:51:04;;;;;;;6.30;1.58;;;27.60;99.40;;;;;;5073499;28;20037;-68
2022/06/17 10:53:51;;;;;;;5.05;1.45;;;27.80;99.10;;;;;;5077191;28;20044;-67
2022/06/17 10:56:28;;;;;;;2.35;1.40;;;28.00;98.60;;;;;;5077142;28;20028;-67
2022/06/17 10:58:57;;;;;;;2.80;1.60;;;28.10;97.70;;;;;;5077267;28;20355;-67
2022/06/17 11:01:24;;;;;;;4.07;1.50;;;28.30;96.40;;;;;;5076963;28;20025;-67
2022/06/17 11:04:08;;;;;;;4.03;1.40;;;28.10;97.00;;;;;;5076937;28;20029;-66
2022/06/17 11:06:40;;;;;;;4.40;1.27;;;28.10;97.20;;;;;;5077394;28;20388;-67
2022/06/17 11:09:23;;;;;;;5.78;1.20;;;28.40;96.60;;;;;;5077102;28;20089;-68
2022/06/17 11:12:04;;;;;;;5.43;1.45;;;29.70;94.90;;;;;;5077047;28;20037;-70
2022/06/17 11:14:43;;;;;;;8.68;1.30;;;30.20;92.00;;;;;;5077118;28;20165;-67
2022/06/17 11:17:34;;;;;;;2.42;1.17;;;30.30;91.20;;;;;;5076678;28;20047;-67
2022/06/17 11:20:20;;;;;;;4.72;1.20;;;31.40;90.10;;;;;;5077799;28;20041;-69
2022/06/17 11:22:54;;;;;;;1.85;1.00;;;32.50;84.70;;;;;;5077807;28;20044;-65
2022/06/17 11:25:37;;;;;;;2.33;1.20;;;32.00;79.30;;;;;;5077599;28;20024;-66
2022/06/17 11:28:17;;;;;;;4.82;1.15;;;30.70;80.90;;;;;;5077088;28;20341;-67
2022/06/17 11:30:53;;;;;;;4.60;1.38;;;31.20;82.00;;;;;;5077803;28;20025;-67
2022/06/17 11:33:25;;;;;;;3.83;1.08;;;31.00;81.40;;;;;;5077349;28;20316;-67
2022/06/17 11:36:19;;;;;;;3.25;1.05;;;31.30;81.40;;;;;;5076127;28;20067;-68
2022/06/17 11:38:46;;;;;;;2.63;1.25;;;31.20;79.30;;;;;;5076812;28;20024;-67
2022/06/17 11:41:24;;;;;;;6.03;1.23;;;31.40;78.30;;;;;;5076824;28;20315;-68
2022/06/17 11:43:52;;;;;;;5.13;1.20;;;32.20;75.50;;;;;;5077198;28;20068;-67
2022/06/17 11:46:19;;;;;;;4.45;1.15;;;33.60;75.90;;;;;;5076905;28;20028;-68
2022/06/17 11:48:58;;;;;;;2.90;1.25;;;32.40;73.60;;;;;;5076033;28;20053;-66
2022/06/17 11:51:37;;;;;;;3.58;1.20;;;32.00;75.10;;;;;;5076986;28;20273;-68
2022/06/17 11:54:17;;;;;;;4.32;1.13;;;32.30;74.20;;;;;;5076966;28;20132;-67
2022/06/17 11:56:48;;;;;;;3.40;1.13;;;32.70;71.50;;;;;;5076366;28;20355;-67
2022/06/17 11:59:25;;;;;;;4.40;1.20;;;32.30;72.40;;;;;;5075937;28;20040;-66
2022/06/17 12:01:54;;;;;;;3.30;1.13;;;33.90;71.20;;;;;;5076526;28;20199;-66
2022/06/17 12:04:40;;;;;;;2.67;0.98;;;33.90;65.70;;;;;;5076561;28;20029;-67
2022/06/17 12:07:27;;;;;;;4.57;1.00;;;34.00;66.00;;;;;;5076751;28;20032;-68
2022/06/17 12:10:36;;;;;;;4.30;1.10;;;34.70;65.50;;;;;;5080483;28;20063;-67
2022/06/17 12:13:22;;;;;;;2.85;1.30;;;35.20;62.80;;;;;;5079616;28;20048;-67
2022/06/17 12:15:57;;;;;;;2.63;1.02;;;34.80;64.00;;;;;;5080535;28;20036;-68
2022/06/17 12:18:27;;;;;;;3.00;1.00;;;35.10;62.10;;;;;;5080347;28;20020;-67
2022/06/17 12:21:18;;;;;;;2.55;1.00;;;35.20;60.20;;;;;;5080678;28;20032;-65
2022/06/17 12:23:55;;;;;;;3.28;1.00;;;34.80;61.10;;;;;;5080651;28;20028;-68
2022/06/17 12:26:53;;;;;;;3.67;1.20;;;35.00;59.50;;;;;;5080838;28;20304;-67
2022/06/17 12:29:26;;;;;;;2.30;1.00;;;33.50;62.70;;;;;;5080056;28;20397;-66
2022/06/17 12:32:14;;;;;;;2.65;1.08;;;34.40;63.50;;;;;;5080426;28;20037;-66
2022/06/17 12:35:05;;;;;;;2.88;1.00;;;33.50;64.00;;;;;;5079935;28;20041;-64
2022/06/17 12:37:57;;;;;;;4.90;1.17;;;34.80;62.40;;;;;;5079926;28;20350;-67
2022/06/17 12:40:34;;;;;;;3.20;1.20;;;36.50;59.20;;;;;;5079840;28;20028;-66
2022/06/17 12:43:22;;;;;;;5.13;1.30;;;35.30;60.40;;;;;;5080241;28;20032;-67
2022/06/17 12:46:02;;;;;;;6.22;1.38;;;35.40;60.40;;;;;;5080503;28;20037;-68
2022/06/17 12:48:34;;;;;;;2.40;1.20;;;35.30;60.30;;;;;;5080194;28;20040;-67
2022/06/17 12:54:34;;;;;;;5.20;1.13;;;37.00;58.70;;;;;;5080623;28;20068;-66
2022/06/17 12:57:16;;;;;;;5.20;1.23;;;36.70;59.10;;;;;;5080127;28;20346;-67
2022/06/17 13:00:18;;;;;;;1.77;0.90;;;37.10;57.90;;;;;;5080759;28;20032;-68
2022/06/17 13:03:16;;;;;;;2.53;1.08;;;37.50;56.00;;;;;;5082073;28;20350;-68
2022/06/17 13:05:44;;;;;;;3.08;1.20;;;36.70;56.40;;;;;;5064432;28;20028;-67
2022/06/17 13:08:32;;;;;;;1.80;1.10;;;35.80;57.80;;;;;;5082472;28;20377;-69
2022/06/17 13:11:17;;;;;;;3.60;1.10;;;36.40;57.20;;;;;;5080068;28;20032;-68
2022/06/17 13:13:52;;;;;;;2.63;1.17;;;36.60;57.40;;;;;;5080566;28;20399;-68
2022/06/17 13:16:27;;;;;;;3.95;1.00;;;36.00;57.10;;;;;;5079668;28;20032;-68
2022/06/17 13:19:11;;;;;;;2.75;1.13;;;35.40;59.50;;;;;;5078828;28;20094;-67
2022/06/17 13:21:59;;;;;;;2.55;1.20;;;36.80;56.70;;;;;;5079389;28;20032;-66
2022/06/17 13:24:56;;;;;;;4.10;1.30;;;37.70;56.40;;;;;;5079723;28;20028;-67
2022/06/17 13:27:44;;;;;;;4.65;1.10;;;38.70;55.30;;;;;;5081070;28;20036;-66
2022/06/17 13:30:13;;;;;;;5.38;1.40;;;37.50;56.30;;;;;;5081271;28;20047;-66
2022/06/17 13:32:43;;;;;;;5.93;1.20;;;38.10;55.40;;;;;;5079413;28;20028;-67
2022/06/17 13:35:24;;;;;;;5.28;1.40;;;38.30;55.00;;;;;;5079127;28;20117;-67
2022/06/17 13:38:10;;;;;;;2.67;1.02;;;37.50;55.10;;;;;;5078853;28;20111;-68
2022/06/17 13:40:48;;;;;;;3.55;1.05;;;36.40;57.00;;;;;;5079527;28;20418;-69
2022/06/17 13:43:27;;;;;;;5.60;1.30;;;38.60;53.30;;;;;;5078963;28;20055;-68
2022/06/17 13:46:04;;;;;;;5.32;1.00;;;39.00;52.20;;;;;;5077985;28;20029;-67